METAR

ENBN 020420Z 18013KT 9999 VCSH FEW008 FEW011CB SCT015 BKN040 02/M00 Q0979

ENMS 310650Z VRB06G24KT 7000 SHRA FEW016 BKN021 04/02 Q1001 RMK WIND 412FT 24015G35KT 190V280

ENNM 020420Z 18013G23KT 9999 FEW020 SCT032 BKN038 02/M02 Q0980

ENOL 020420Z 19013KT 1000 SHSNRA VV007 00/M00 Q0979 TEMPO 9999 FEW012CB BKN025

ENST 020420Z 18013KT 9999 VCSH FEW018CB FEW025 BKN035 02/M02 Q0977 RMK WIND 300FT 18017KT

ENVA 020420Z 16009KT 9999 SCT048 BKN059 03/M05 Q0981 RMK WIND 670FT 18015KT



TAF

TAF ENVA 011700Z 0118/0218 26015KT 9999 -SHRA FEW020TCU BKN040 TEMPO 0118/0124 27018G28KT 4000 SHRASN BKN014CB BECMG 0123/0202 14008KT TEMPO 0204/0218 1200 SHSNGS VV011